sensor_id;sensor_type;location;lat;lon;timestamp;P1;durP1;ratioP1;P2;durP2;ratioP2
18610;SDS011;9435;52.122;5.502;2023-08-12T00:00:11;13.30;;;5.63;;
18610;SDS011;9435;52.122;5.502;2023-08-12T00:02:39;11.98;;;5.80;;
18610;SDS011;9435;52.122;5.502;2023-08-12T00:05:06;12.13;;;5.57;;
18610;SDS011;9435;52.122;5.502;2023-08-12T00:07:36;11.43;;;5.80;;
18610;SDS011;9435;52.122;5.502;2023-08-12T00:10:04;11.02;;;5.40;;
18610;SDS011;9435;52.122;5.502;2023-08-12T00:12:31;13.57;;;6.15;;
18610;SDS011;9435;52.122;5.502;2023-08-12T00:15:00;11.60;;;6.45;;
18610;SDS011;9435;52.122;5.502;2023-08-12T00:17:27;12.48;;;6.00;;
18610;SDS011;9435;52.122;5.502;2023-08-12T00:19:54;11.25;;;6.13;;
18610;SDS011;9435;52.122;5.502;2023-08-12T00:22:22;14.25;;;6.40;;
18610;SDS011;9435;52.122;5.502;2023-08-12T00:24:49;9.30;;;5.32;;
18610;SDS011;9435;52.122;5.502;2023-08-12T00:27:16;12.48;;;6.45;;
18610;SDS011;9435;52.122;5.502;2023-08-12T00:29:44;8.77;;;5.60;;
18610;SDS011;9435;52.122;5.502;2023-08-12T00:32:12;9.68;;;5.60;;
18610;SDS011;9435;52.122;5.502;2023-08-12T00:34:39;10.73;;;6.10;;
18610;SDS011;9435;52.122;5.502;2023-08-12T00:37:06;11.20;;;6.03;;
18610;SDS011;9435;52.122;5.502;2023-08-12T00:39:33;11.40;;;6.35;;
18610;SDS011;9435;52.122;5.502;2023-08-12T00:42:00;11.63;;;6.80;;
18610;SDS011;9435;52.122;5.502;2023-08-12T00:44:27;13.30;;;6.32;;
18610;SDS011;9435;52.122;5.502;2023-08-12T00:46:54;14.80;;;7.88;;
18610;SDS011;9435;52.122;5.502;2023-08-12T00:49:23;15.02;;;7.43;;
18610;SDS011;9435;52.122;5.502;2023-08-12T00:51:51;14.65;;;7.60;;
18610;SDS011;9435;52.122;5.502;2023-08-12T00:54:19;17.08;;;8.18;;
18610;SDS011;9435;52.122;5.502;2023-08-12T00:56:48;15.13;;;8.05;;
18610;SDS011;9435;52.122;5.502;2023-08-12T00:59:16;16.88;;;8.57;;
18610;SDS011;9435;52.122;5.502;2023-08-12T01:01:44;18.80;;;9.18;;
18610;SDS011;9435;52.122;5.502;2023-08-12T01:04:12;11.90;;;7.72;;
18610;SDS011;9435;52.122;5.502;2023-08-12T01:06:41;17.02;;;8.85;;
18610;SDS011;9435;52.122;5.502;2023-08-12T01:09:08;12.77;;;7.95;;
18610;SDS011;9435;52.122;5.502;2023-08-12T01:11:36;15.13;;;7.70;;
18610;SDS011;9435;52.122;5.502;2023-08-12T01:14:11;19.23;;;8.27;;
18610;SDS011;9435;52.122;5.502;2023-08-12T01:16:43;16.48;;;8.82;;
18610;SDS011;9435;52.122;5.502;2023-08-12T01:19:28;14.65;;;8.30;;
18610;SDS011;9435;52.122;5.502;2023-08-12T01:22:03;14.70;;;8.57;;
18610;SDS011;9435;52.122;5.502;2023-08-12T01:24:35;17.83;;;9.20;;
18610;SDS011;9435;52.122;5.502;2023-08-12T01:27:04;18.10;;;9.18;;
18610;SDS011;9435;52.122;5.502;2023-08-12T01:29:32;14.85;;;8.10;;
18610;SDS011;9435;52.122;5.502;2023-08-12T01:32:06;15.52;;;8.32;;
18610;SDS011;9435;52.122;5.502;2023-08-12T01:34:40;13.80;;;8.75;;
18610;SDS011;9435;52.122;5.502;2023-08-12T01:37:14;15.90;;;8.68;;
18610;SDS011;9435;52.122;5.502;2023-08-12T01:39:52;19.50;;;9.27;;
18610;SDS011;9435;52.122;5.502;2023-08-12T01:42:20;17.10;;;8.95;;
18610;SDS011;9435;52.122;5.502;2023-08-12T01:44:49;16.00;;;8.63;;
18610;SDS011;9435;52.122;5.502;2023-08-12T01:47:16;17.48;;;9.05;;
18610;SDS011;9435;52.122;5.502;2023-08-12T01:49:43;16.92;;;9.13;;
18610;SDS011;9435;52.122;5.502;2023-08-12T01:52:10;18.77;;;9.88;;
18610;SDS011;9435;52.122;5.502;2023-08-12T01:54:37;17.75;;;9.50;;
18610;SDS011;9435;52.122;5.502;2023-08-12T01:57:06;19.83;;;9.50;;
18610;SDS011;9435;52.122;5.502;2023-08-12T01:59:34;17.45;;;10.02;;
18610;SDS011;9435;52.122;5.502;2023-08-12T02:02:01;19.90;;;10.88;;
18610;SDS011;9435;52.122;5.502;2023-08-12T02:04:29;17.52;;;9.60;;
18610;SDS011;9435;52.122;5.502;2023-08-12T02:06:56;17.77;;;9.32;;
18610;SDS011;9435;52.122;5.502;2023-08-12T02:09:23;16.33;;;9.90;;
18610;SDS011;9435;52.122;5.502;2023-08-12T02:11:50;18.33;;;10.20;;
18610;SDS011;9435;52.122;5.502;2023-08-12T02:14:19;22.45;;;11.52;;
18610;SDS011;9435;52.122;5.502;2023-08-12T02:16:46;21.35;;;11.30;;
18610;SDS011;9435;52.122;5.502;2023-08-12T02:19:13;22.50;;;11.23;;
18610;SDS011;9435;52.122;5.502;2023-08-12T02:21:40;20.83;;;11.38;;
18610;SDS011;9435;52.122;5.502;2023-08-12T02:24:07;19.08;;;11.52;;
18610;SDS011;9435;52.122;5.502;2023-08-12T02:26:34;22.50;;;11.75;;
18610;SDS011;9435;52.122;5.502;2023-08-12T02:29:02;23.17;;;12.57;;
18610;SDS011;9435;52.122;5.502;2023-08-12T02:31:30;22.50;;;11.77;;
18610;SDS011;9435;52.122;5.502;2023-08-12T02:33:57;20.70;;;11.68;;
18610;SDS011;9435;52.122;5.502;2023-08-12T02:36:25;29.13;;;13.40;;
18610;SDS011;9435;52.122;5.502;2023-08-12T02:38:52;24.52;;;12.65;;
18610;SDS011;9435;52.122;5.502;2023-08-12T02:41:19;26.42;;;13.93;;
18610;SDS011;9435;52.122;5.502;2023-08-12T02:43:46;24.98;;;12.90;;
18610;SDS011;9435;52.122;5.502;2023-08-12T02:46:13;22.70;;;13.07;;
18610;SDS011;9435;52.122;5.502;2023-08-12T02:48:42;28.42;;;14.60;;
18610;SDS011;9435;52.122;5.502;2023-08-12T02:51:09;28.70;;;15.02;;
18610;SDS011;9435;52.122;5.502;2023-08-12T02:53:36;25.77;;;14.63;;
18610;SDS011;9435;52.122;5.502;2023-08-12T02:56:03;29.10;;;15.63;;
18610;SDS011;9435;52.122;5.502;2023-08-12T02:58:30;26.48;;;14.48;;
18610;SDS011;9435;52.122;5.502;2023-08-12T03:00:57;28.83;;;15.07;;
18610;SDS011;9435;52.122;5.502;2023-08-12T03:03:24;25.92;;;14.55;;
18610;SDS011;9435;52.122;5.502;2023-08-12T03:05:53;26.08;;;14.88;;
18610;SDS011;9435;52.122;5.502;2023-08-12T03:08:20;29.40;;;15.80;;
18610;SDS011;9435;52.122;5.502;2023-08-12T03:10:47;34.63;;;17.40;;
18610;SDS011;9435;52.122;5.502;2023-08-12T03:13:14;25.85;;;14.70;;
18610;SDS011;9435;52.122;5.502;2023-08-12T03:15:41;25.90;;;14.27;;
18610;SDS011;9435;52.122;5.502;2023-08-12T03:18:08;28.20;;;15.63;;
18610;SDS011;9435;52.122;5.502;2023-08-12T03:20:36;28.50;;;16.00;;
18610;SDS011;9435;52.122;5.502;2023-08-12T03:23:04;25.02;;;14.90;;
18610;SDS011;9435;52.122;5.502;2023-08-12T03:25:31;28.42;;;14.90;;
18610;SDS011;9435;52.122;5.502;2023-08-12T03:27:58;26.10;;;14.02;;
18610;SDS011;9435;52.122;5.502;2023-08-12T03:30:26;30.23;;;15.00;;
18610;SDS011;9435;52.122;5.502;2023-08-12T03:32:53;28.35;;;14.32;;
18610;SDS011;9435;52.122;5.502;2023-08-12T03:35:20;27.27;;;14.25;;
18610;SDS011;9435;52.122;5.502;2023-08-12T03:37:47;27.73;;;15.02;;
18610;SDS011;9435;52.122;5.502;2023-08-12T03:40:15;29.60;;;15.05;;
18610;SDS011;9435;52.122;5.502;2023-08-12T03:42:42;30.67;;;16.27;;
18610;SDS011;9435;52.122;5.502;2023-08-12T03:45:10;26.13;;;15.45;;
18610;SDS011;9435;52.122;5.502;2023-08-12T03:47:37;24.83;;;14.10;;
18610;SDS011;9435;52.122;5.502;2023-08-12T03:50:05;24.92;;;14.55;;
18610;SDS011;9435;52.122;5.502;2023-08-12T03:52:32;30.33;;;16.48;;
18610;SDS011;9435;52.122;5.502;2023-08-12T03:54:59;25.13;;;14.30;;
18610;SDS011;9435;52.122;5.502;2023-08-12T03:57:28;28.52;;;16.33;;
18610;SDS011;9435;52.122;5.502;2023-08-12T03:59:56;27.73;;;15.27;;
18610;SDS011;9435;52.122;5.502;2023-08-12T04:02:24;28.45;;;16.30;;
18610;SDS011;9435;52.122;5.502;2023-08-12T04:04:51;28.23;;;15.93;;
18610;SDS011;9435;52.122;5.502;2023-08-12T04:07:18;30.10;;;15.80;;
18610;SDS011;9435;52.122;5.502;2023-08-12T04:09:45;27.52;;;15.73;;
18610;SDS011;9435;52.122;5.502;2023-08-12T04:12:12;30.95;;;17.92;;
18610;SDS011;9435;52.122;5.502;2023-08-12T04:14:40;32.47;;;17.55;;
18610;SDS011;9435;52.122;5.502;2023-08-12T04:17:07;30.98;;;18.30;;
18610;SDS011;9435;52.122;5.502;2023-08-12T04:19:34;34.47;;;18.73;;
18610;SDS011;9435;52.122;5.502;2023-08-12T04:22:01;34.75;;;18.90;;
18610;SDS011;9435;52.122;5.502;2023-08-12T04:24:28;33.17;;;16.75;;
18610;SDS011;9435;52.122;5.502;2023-08-12T04:26:55;30.83;;;17.75;;
18610;SDS011;9435;52.122;5.502;2023-08-12T04:29:22;29.52;;;18.25;;
18610;SDS011;9435;52.122;5.502;2023-08-12T04:31:51;37.15;;;19.92;;
18610;SDS011;9435;52.122;5.502;2023-08-12T04:34:18;38.95;;;20.67;;
18610;SDS011;9435;52.122;5.502;2023-08-12T04:36:45;36.25;;;20.92;;
18610;SDS011;9435;52.122;5.502;2023-08-12T04:39:12;37.05;;;21.05;;
18610;SDS011;9435;52.122;5.502;2023-08-12T04:41:39;35.03;;;21.42;;
18610;SDS011;9435;52.122;5.502;2023-08-12T04:44:06;37.67;;;22.33;;
18610;SDS011;9435;52.122;5.502;2023-08-12T04:46:34;44.15;;;23.42;;
18610;SDS011;9435;52.122;5.502;2023-08-12T04:49:02;37.28;;;22.45;;
18610;SDS011;9435;52.122;5.502;2023-08-12T04:51:30;35.25;;;20.15;;
18610;SDS011;9435;52.122;5.502;2023-08-12T04:53:57;36.92;;;21.48;;
18610;SDS011;9435;52.122;5.502;2023-08-12T04:56:26;39.45;;;22.98;;
18610;SDS011;9435;52.122;5.502;2023-08-12T04:58:54;38.40;;;22.20;;
18610;SDS011;9435;52.122;5.502;2023-08-12T05:01:21;40.58;;;23.10;;
18610;SDS011;9435;52.122;5.502;2023-08-12T05:03:48;36.40;;;21.55;;
18610;SDS011;9435;52.122;5.502;2023-08-12T05:06:16;39.13;;;21.95;;
18610;SDS011;9435;52.122;5.502;2023-08-12T05:08:43;30.33;;;19.48;;
18610;SDS011;9435;52.122;5.502;2023-08-12T05:11:10;37.25;;;20.48;;
18610;SDS011;9435;52.122;5.502;2023-08-12T05:13:37;33.03;;;19.40;;
18610;SDS011;9435;52.122;5.502;2023-08-12T05:16:04;34.15;;;20.02;;
18610;SDS011;9435;52.122;5.502;2023-08-12T05:18:31;32.80;;;18.55;;
18610;SDS011;9435;52.122;5.502;2023-08-12T05:20:59;36.75;;;20.02;;
18610;SDS011;9435;52.122;5.502;2023-08-12T05:23:27;32.25;;;19.02;;
18610;SDS011;9435;52.122;5.502;2023-08-12T05:25:54;30.55;;;18.83;;
18610;SDS011;9435;52.122;5.502;2023-08-12T05:28:21;37.30;;;20.98;;
18610;SDS011;9435;52.122;5.502;2023-08-12T05:30:48;34.80;;;19.42;;
18610;SDS011;9435;52.122;5.502;2023-08-12T05:33:15;32.35;;;19.63;;
18610;SDS011;9435;52.122;5.502;2023-08-12T05:35:42;32.58;;;19.10;;
18610;SDS011;9435;52.122;5.502;2023-08-12T05:38:09;30.25;;;18.38;;
18610;SDS011;9435;52.122;5.502;2023-08-12T05:40:37;28.70;;;17.25;;
18610;SDS011;9435;52.122;5.502;2023-08-12T05:43:05;33.30;;;18.38;;
18610;SDS011;9435;52.122;5.502;2023-08-12T05:45:32;26.88;;;16.17;;
18610;SDS011;9435;52.122;5.502;2023-08-12T05:47:59;31.92;;;18.30;;
18610;SDS011;9435;52.122;5.502;2023-08-12T05:50:26;34.33;;;18.73;;
18610;SDS011;9435;52.122;5.502;2023-08-12T05:52:53;31.70;;;17.38;;
18610;SDS011;9435;52.122;5.502;2023-08-12T05:55:20;28.20;;;17.40;;
18610;SDS011;9435;52.122;5.502;2023-08-12T05:57:49;30.65;;;16.90;;
18610;SDS011;9435;52.122;5.502;2023-08-12T06:00:16;31.15;;;16.60;;
18610;SDS011;9435;52.122;5.502;2023-08-12T06:02:43;25.48;;;15.77;;
18610;SDS011;9435;52.122;5.502;2023-08-12T06:05:10;29.95;;;15.40;;
18610;SDS011;9435;52.122;5.502;2023-08-12T06:07:37;23.35;;;14.52;;
18610;SDS011;9435;52.122;5.502;2023-08-12T06:10:04;25.63;;;15.10;;
18610;SDS011;9435;52.122;5.502;2023-08-12T06:12:32;25.33;;;14.38;;
18610;SDS011;9435;52.122;5.502;2023-08-12T06:15:00;22.75;;;13.43;;
18610;SDS011;9435;52.122;5.502;2023-08-12T06:17:28;22.38;;;12.98;;
18610;SDS011;9435;52.122;5.502;2023-08-12T06:19:55;19.67;;;11.68;;
18610;SDS011;9435;52.122;5.502;2023-08-12T06:22:22;20.88;;;11.70;;
18610;SDS011;9435;52.122;5.502;2023-08-12T06:24:49;15.18;;;10.27;;
18610;SDS011;9435;52.122;5.502;2023-08-12T06:27:16;15.95;;;9.85;;
18610;SDS011;9435;52.122;5.502;2023-08-12T06:29:44;15.15;;;9.55;;
18610;SDS011;9435;52.122;5.502;2023-08-12T06:32:13;15.60;;;8.70;;
18610;SDS011;9435;52.122;5.502;2023-08-12T06:34:40;14.98;;;9.70;;
18610;SDS011;9435;52.122;5.502;2023-08-12T06:37:07;14.18;;;8.90;;
18610;SDS011;9435;52.122;5.502;2023-08-12T06:39:35;20.90;;;9.70;;
18610;SDS011;9435;52.122;5.502;2023-08-12T06:42:02;18.10;;;10.40;;
18610;SDS011;9435;52.122;5.502;2023-08-12T06:44:29;12.63;;;8.50;;
18610;SDS011;9435;52.122;5.502;2023-08-12T06:46:56;14.30;;;9.05;;
18610;SDS011;9435;52.122;5.502;2023-08-12T06:49:25;14.27;;;9.40;;
18610;SDS011;9435;52.122;5.502;2023-08-12T06:51:52;13.65;;;9.02;;
18610;SDS011;9435;52.122;5.502;2023-08-12T06:54:19;13.85;;;9.55;;
18610;SDS011;9435;52.122;5.502;2023-08-12T06:56:48;13.27;;;8.73;;
18610;SDS011;9435;52.122;5.502;2023-08-12T06:59:15;15.18;;;9.65;;
18610;SDS011;9435;52.122;5.502;2023-08-12T07:01:42;15.73;;;9.80;;
18610;SDS011;9435;52.122;5.502;2023-08-12T07:04:09;15.73;;;10.23;;
18610;SDS011;9435;52.122;5.502;2023-08-12T07:06:38;14.13;;;9.40;;
18610;SDS011;9435;52.122;5.502;2023-08-12T07:09:05;11.52;;;8.80;;
18610;SDS011;9435;52.122;5.502;2023-08-12T07:11:32;13.25;;;9.50;;
18610;SDS011;9435;52.122;5.502;2023-08-12T07:13:59;13.02;;;9.05;;
18610;SDS011;9435;52.122;5.502;2023-08-12T07:16:26;13.07;;;9.18;;
18610;SDS011;9435;52.122;5.502;2023-08-12T07:18:54;11.43;;;8.32;;
18610;SDS011;9435;52.122;5.502;2023-08-12T07:21:21;14.18;;;9.55;;
18610;SDS011;9435;52.122;5.502;2023-08-12T07:23:50;11.63;;;8.43;;
18610;SDS011;9435;52.122;5.502;2023-08-12T07:26:17;10.98;;;8.07;;
18610;SDS011;9435;52.122;5.502;2023-08-12T07:28:44;12.68;;;8.45;;
18610;SDS011;9435;52.122;5.502;2023-08-12T07:31:11;11.90;;;8.70;;
18610;SDS011;9435;52.122;5.502;2023-08-12T07:33:38;11.68;;;8.60;;
18610;SDS011;9435;52.122;5.502;2023-08-12T07:36:05;12.82;;;9.18;;
18610;SDS011;9435;52.122;5.502;2023-08-12T07:38:32;14.73;;;8.98;;
18610;SDS011;9435;52.122;5.502;2023-08-12T07:41:01;11.60;;;7.97;;
18610;SDS011;9435;52.122;5.502;2023-08-12T07:43:28;11.30;;;8.15;;
18610;SDS011;9435;52.122;5.502;2023-08-12T07:45:55;11.13;;;7.38;;
18610;SDS011;9435;52.122;5.502;2023-08-12T07:48:22;10.05;;;6.60;;
18610;SDS011;9435;52.122;5.502;2023-08-12T07:50:54;12.00;;;6.53;;
18610;SDS011;9435;52.122;5.502;2023-08-12T07:53:22;9.02;;;6.25;;
18610;SDS011;9435;52.122;5.502;2023-08-12T07:55:49;9.27;;;6.47;;
18610;SDS011;9435;52.122;5.502;2023-08-12T07:58:18;9.82;;;6.40;;
18610;SDS011;9435;52.122;5.502;2023-08-12T08:00:45;9.18;;;5.63;;
18610;SDS011;9435;52.122;5.502;2023-08-12T08:03:12;8.43;;;6.15;;
18610;SDS011;9435;52.122;5.502;2023-08-12T08:05:40;8.63;;;6.32;;
18610;SDS011;9435;52.122;5.502;2023-08-12T08:08:07;9.57;;;5.70;;
18610;SDS011;9435;52.122;5.502;2023-08-12T08:10:34;9.73;;;5.82;;
18610;SDS011;9435;52.122;5.502;2023-08-12T08:13:01;8.13;;;5.55;;
18610;SDS011;9435;52.122;5.502;2023-08-12T08:15:30;6.85;;;5.00;;
18610;SDS011;9435;52.122;5.502;2023-08-12T08:17:57;8.35;;;5.47;;
18610;SDS011;9435;52.122;5.502;2023-08-12T08:20:25;5.90;;;4.80;;
18610;SDS011;9435;52.122;5.502;2023-08-12T08:22:52;6.95;;;5.18;;
18610;SDS011;9435;52.122;5.502;2023-08-12T08:25:21;8.15;;;5.15;;
18610;SDS011;9435;52.122;5.502;2023-08-12T08:27:48;9.27;;;5.25;;
18610;SDS011;9435;52.122;5.502;2023-08-12T08:30:15;6.95;;;4.63;;
18610;SDS011;9435;52.122;5.502;2023-08-12T08:32:44;6.43;;;4.30;;
18610;SDS011;9435;52.122;5.502;2023-08-12T08:35:12;6.55;;;4.20;;
18610;SDS011;9435;52.122;5.502;2023-08-12T08:37:41;5.32;;;4.43;;
18610;SDS011;9435;52.122;5.502;2023-08-12T08:40:09;5.53;;;4.45;;
18610;SDS011;9435;52.122;5.502;2023-08-12T08:42:37;6.03;;;4.45;;
18610;SDS011;9435;52.122;5.502;2023-08-12T08:45:05;5.93;;;3.85;;
18610;SDS011;9435;52.122;5.502;2023-08-12T08:47:39;5.75;;;3.60;;
18610;SDS011;9435;52.122;5.502;2023-08-12T08:50:09;5.07;;;4.00;;
18610;SDS011;9435;52.122;5.502;2023-08-12T08:52:37;5.90;;;4.00;;
18610;SDS011;9435;52.122;5.502;2023-08-12T08:55:04;6.88;;;4.45;;
18610;SDS011;9435;52.122;5.502;2023-08-12T08:57:32;5.47;;;4.03;;
18610;SDS011;9435;52.122;5.502;2023-08-12T09:00:00;6.35;;;4.50;;
18610;SDS011;9435;52.122;5.502;2023-08-12T09:02:28;6.05;;;4.15;;
18610;SDS011;9435;52.122;5.502;2023-08-12T09:04:56;4.60;;;3.53;;
18610;SDS011;9435;52.122;5.502;2023-08-12T09:07:25;3.42;;;3.05;;
18610;SDS011;9435;52.122;5.502;2023-08-12T09:09:52;4.32;;;2.75;;
18610;SDS011;9435;52.122;5.502;2023-08-12T09:12:22;4.47;;;2.30;;
18610;SDS011;9435;52.122;5.502;2023-08-12T09:14:51;2.55;;;2.00;;
18610;SDS011;9435;52.122;5.502;2023-08-12T09:17:18;2.40;;;1.50;;
18610;SDS011;9435;52.122;5.502;2023-08-12T09:19:45;1.33;;;1.10;;
18610;SDS011;9435;52.122;5.502;2023-08-12T09:22:12;1.63;;;1.13;;
18610;SDS011;9435;52.122;5.502;2023-08-12T09:24:41;2.65;;;1.13;;
18610;SDS011;9435;52.122;5.502;2023-08-12T09:27:09;2.83;;;1.17;;
18610;SDS011;9435;52.122;5.502;2023-08-12T09:29:36;2.95;;;1.20;;
18610;SDS011;9435;52.122;5.502;2023-08-12T09:32:09;5.13;;;1.63;;
18610;SDS011;9435;52.122;5.502;2023-08-12T09:34:43;3.28;;;1.40;;
18610;SDS011;9435;52.122;5.502;2023-08-12T09:37:14;3.45;;;1.50;;
18610;SDS011;9435;52.122;5.502;2023-08-12T09:39:44;5.35;;;1.70;;
18610;SDS011;9435;52.122;5.502;2023-08-12T09:42:14;3.22;;;1.40;;
18610;SDS011;9435;52.122;5.502;2023-08-12T09:44:43;3.75;;;1.40;;
18610;SDS011;9435;52.122;5.502;2023-08-12T09:47:11;4.10;;;1.70;;
18610;SDS011;9435;52.122;5.502;2023-08-12T09:49:38;4.72;;;1.77;;
18610;SDS011;9435;52.122;5.502;2023-08-12T09:52:06;5.75;;;1.92;;
18610;SDS011;9435;52.122;5.502;2023-08-12T09:54:34;5.70;;;2.20;;
18610;SDS011;9435;52.122;5.502;2023-08-12T09:57:04;7.55;;;2.30;;
18610;SDS011;9435;52.122;5.502;2023-08-12T09:59:33;4.75;;;2.00;;
18610;SDS011;9435;52.122;5.502;2023-08-12T10:02:02;5.40;;;2.00;;
18610;SDS011;9435;52.122;5.502;2023-08-12T10:04:33;5.35;;;2.20;;
18610;SDS011;9435;52.122;5.502;2023-08-12T10:07:03;6.05;;;1.85;;
18610;SDS011;9435;52.122;5.502;2023-08-12T10:09:31;6.80;;;2.08;;
18610;SDS011;9435;52.122;5.502;2023-08-12T10:11:59;5.55;;;2.03;;
18610;SDS011;9435;52.122;5.502;2023-08-12T10:14:28;8.00;;;2.28;;
18610;SDS011;9435;52.122;5.502;2023-08-12T10:16:55;10.00;;;2.65;;
18610;SDS011;9435;52.122;5.502;2023-08-12T10:19:24;6.32;;;1.90;;
18610;SDS011;9435;52.122;5.502;2023-08-12T10:21:54;6.95;;;2.50;;
18610;SDS011;9435;52.122;5.502;2023-08-12T10:24:23;8.00;;;2.35;;
18610;SDS011;9435;52.122;5.502;2023-08-12T10:26:50;7.35;;;2.83;;
18610;SDS011;9435;52.122;5.502;2023-08-12T10:29:18;6.78;;;2.25;;
18610;SDS011;9435;52.122;5.502;2023-08-12T10:31:47;6.20;;;2.60;;
18610;SDS011;9435;52.122;5.502;2023-08-12T10:34:18;5.53;;;2.20;;
18610;SDS011;9435;52.122;5.502;2023-08-12T10:36:46;5.75;;;2.22;;
18610;SDS011;9435;52.122;5.502;2023-08-12T10:39:14;7.18;;;2.50;;
18610;SDS011;9435;52.122;5.502;2023-08-12T10:41:49;7.13;;;2.20;;
18610;SDS011;9435;52.122;5.502;2023-08-12T10:44:19;6.03;;;2.33;;
18610;SDS011;9435;52.122;5.502;2023-08-12T10:46:52;8.43;;;2.05;;
18610;SDS011;9435;52.122;5.502;2023-08-12T10:49:20;7.05;;;2.00;;
18610;SDS011;9435;52.122;5.502;2023-08-12T10:51:48;5.68;;;1.90;;
18610;SDS011;9435;52.122;5.502;2023-08-12T10:54:18;5.38;;;1.70;;
18610;SDS011;9435;52.122;5.502;2023-08-12T10:57:03;6.50;;;2.00;;
18610;SDS011;9435;52.122;5.502;2023-08-12T10:59:49;7.53;;;1.83;;
18610;SDS011;9435;52.122;5.502;2023-08-12T11:02:19;7.15;;;1.88;;
18610;SDS011;9435;52.122;5.502;2023-08-12T11:04:57;7.80;;;2.10;;
18610;SDS011;9435;52.122;5.502;2023-08-12T11:07:28;8.07;;;2.13;;
18610;SDS011;9435;52.122;5.502;2023-08-12T11:10:03;8.48;;;2.53;;
18610;SDS011;9435;52.122;5.502;2023-08-12T11:12:33;7.53;;;2.08;;
18610;SDS011;9435;52.122;5.502;2023-08-12T11:15:02;6.43;;;2.08;;
18610;SDS011;9435;52.122;5.502;2023-08-12T11:17:34;6.68;;;2.30;;
18610;SDS011;9435;52.122;5.502;2023-08-12T11:20:04;6.78;;;2.05;;
18610;SDS011;9435;52.122;5.502;2023-08-12T11:22:35;8.23;;;2.30;;
18610;SDS011;9435;52.122;5.502;2023-08-12T11:25:04;6.70;;;2.25;;
18610;SDS011;9435;52.122;5.502;2023-08-12T11:27:37;6.72;;;2.20;;
18610;SDS011;9435;52.122;5.502;2023-08-12T11:30:06;6.20;;;2.30;;
18610;SDS011;9435;52.122;5.502;2023-08-12T11:32:36;10.13;;;2.15;;
18610;SDS011;9435;52.122;5.502;2023-08-12T11:35:05;8.13;;;2.10;;
18610;SDS011;9435;52.122;5.502;2023-08-12T11:37:34;8.38;;;2.17;;
18610;SDS011;9435;52.122;5.502;2023-08-12T11:40:02;5.35;;;1.80;;
18610;SDS011;9435;52.122;5.502;2023-08-12T11:42:30;7.93;;;1.90;;
18610;SDS011;9435;52.122;5.502;2023-08-12T11:44:57;7.00;;;2.38;;
18610;SDS011;9435;52.122;5.502;2023-08-12T11:47:24;7.90;;;2.40;;
18610;SDS011;9435;52.122;5.502;2023-08-12T11:49:53;7.53;;;2.28;;
18610;SDS011;9435;52.122;5.502;2023-08-12T11:52:20;7.93;;;2.40;;
18610;SDS011;9435;52.122;5.502;2023-08-12T11:54:48;8.27;;;2.03;;
18610;SDS011;9435;52.122;5.502;2023-08-12T11:57:16;7.63;;;1.90;;
18610;SDS011;9435;52.122;5.502;2023-08-12T11:59:43;7.05;;;2.17;;
18610;SDS011;9435;52.122;5.502;2023-08-12T12:02:10;7.38;;;1.90;;
18610;SDS011;9435;52.122;5.502;2023-08-12T12:04:38;9.55;;;1.90;;
18610;SDS011;9435;52.122;5.502;2023-08-12T12:07:19;5.45;;;1.90;;
18610;SDS011;9435;52.122;5.502;2023-08-12T12:09:50;10.95;;;2.00;;
18610;SDS011;9435;52.122;5.502;2023-08-12T12:12:18;9.38;;;2.40;;
18610;SDS011;9435;52.122;5.502;2023-08-12T12:14:48;7.40;;;2.10;;
18610;SDS011;9435;52.122;5.502;2023-08-12T12:17:17;6.55;;;2.20;;
18610;SDS011;9435;52.122;5.502;2023-08-12T12:19:46;5.88;;;2.20;;
18610;SDS011;9435;52.122;5.502;2023-08-12T12:22:13;6.72;;;1.80;;
18610;SDS011;9435;52.122;5.502;2023-08-12T12:24:45;6.72;;;2.08;;
18610;SDS011;9435;52.122;5.502;2023-08-12T12:27:13;6.60;;;2.13;;
18610;SDS011;9435;52.122;5.502;2023-08-12T12:29:40;9.00;;;2.33;;
18610;SDS011;9435;52.122;5.502;2023-08-12T12:32:07;8.10;;;2.30;;
18610;SDS011;9435;52.122;5.502;2023-08-12T12:34:34;7.32;;;2.00;;
18610;SDS011;9435;52.122;5.502;2023-08-12T12:37:01;5.90;;;1.67;;
18610;SDS011;9435;52.122;5.502;2023-08-12T12:39:28;9.55;;;2.15;;
18610;SDS011;9435;52.122;5.502;2023-08-12T12:41:57;7.38;;;1.70;;
18610;SDS011;9435;52.122;5.502;2023-08-12T12:44:25;7.57;;;1.90;;
18610;SDS011;9435;52.122;5.502;2023-08-12T12:46:52;7.35;;;1.80;;
18610;SDS011;9435;52.122;5.502;2023-08-12T12:49:19;7.13;;;1.60;;
18610;SDS011;9435;52.122;5.502;2023-08-12T12:51:47;6.18;;;1.50;;
18610;SDS011;9435;52.122;5.502;2023-08-12T12:54:14;7.97;;;1.70;;
18610;SDS011;9435;52.122;5.502;2023-08-12T12:56:41;7.90;;;1.55;;
18610;SDS011;9435;52.122;5.502;2023-08-12T12:59:10;5.10;;;1.80;;
18610;SDS011;9435;52.122;5.502;2023-08-12T13:01:37;8.63;;;1.85;;
18610;SDS011;9435;52.122;5.502;2023-08-12T13:04:04;9.27;;;1.75;;
18610;SDS011;9435;52.122;5.502;2023-08-12T13:06:33;5.00;;;1.42;;
18610;SDS011;9435;52.122;5.502;2023-08-12T13:09:00;10.00;;;1.90;;
18610;SDS011;9435;52.122;5.502;2023-08-12T13:11:28;9.15;;;1.80;;
18610;SDS011;9435;52.122;5.502;2023-08-12T13:13:55;8.27;;;1.63;;
18610;SDS011;9435;52.122;5.502;2023-08-12T13:16:23;6.35;;;1.77;;
18610;SDS011;9435;52.122;5.502;2023-08-12T13:18:50;7.53;;;1.98;;
18610;SDS011;9435;52.122;5.502;2023-08-12T13:21:17;4.68;;;1.60;;
18610;SDS011;9435;52.122;5.502;2023-08-12T13:23:45;7.15;;;1.90;;
18610;SDS011;9435;52.122;5.502;2023-08-12T13:26:12;7.35;;;2.10;;
18610;SDS011;9435;52.122;5.502;2023-08-12T13:28:39;7.65;;;1.70;;
18610;SDS011;9435;52.122;5.502;2023-08-12T13:31:06;9.35;;;2.40;;
18610;SDS011;9435;52.122;5.502;2023-08-12T13:33:35;6.60;;;1.90;;
18610;SDS011;9435;52.122;5.502;2023-08-12T13:36:02;6.78;;;1.80;;
18610;SDS011;9435;52.122;5.502;2023-08-12T13:38:29;7.43;;;1.85;;
18610;SDS011;9435;52.122;5.502;2023-08-12T13:40:56;7.95;;;2.00;;
18610;SDS011;9435;52.122;5.502;2023-08-12T13:43:23;8.25;;;2.10;;
18610;SDS011;9435;52.122;5.502;2023-08-12T13:45:50;7.13;;;2.00;;
18610;SDS011;9435;52.122;5.502;2023-08-12T13:48:17;9.27;;;2.08;;
18610;SDS011;9435;52.122;5.502;2023-08-12T13:50:46;9.00;;;1.92;;
18610;SDS011;9435;52.122;5.502;2023-08-12T13:53:14;5.80;;;1.83;;
18610;SDS011;9435;52.122;5.502;2023-08-12T13:55:41;10.13;;;2.00;;
18610;SDS011;9435;52.122;5.502;2023-08-12T13:58:08;7.30;;;1.70;;
18610;SDS011;9435;52.122;5.502;2023-08-12T14:00:35;7.35;;;1.98;;
18610;SDS011;9435;52.122;5.502;2023-08-12T14:03:03;9.57;;;1.85;;
18610;SDS011;9435;52.122;5.502;2023-08-12T14:05:30;8.00;;;2.03;;
18610;SDS011;9435;52.122;5.502;2023-08-12T14:07:59;8.88;;;1.95;;
18610;SDS011;9435;52.122;5.502;2023-08-12T14:10:26;7.93;;;1.73;;
18610;SDS011;9435;52.122;5.502;2023-08-12T14:12:53;8.60;;;2.00;;
18610;SDS011;9435;52.122;5.502;2023-08-12T14:15:20;8.80;;;1.77;;
18610;SDS011;9435;52.122;5.502;2023-08-12T14:17:47;8.20;;;1.92;;
18610;SDS011;9435;52.122;5.502;2023-08-12T14:20:14;8.40;;;2.15;;
18610;SDS011;9435;52.122;5.502;2023-08-12T14:22:41;8.88;;;2.28;;
18610;SDS011;9435;52.122;5.502;2023-08-12T14:25:11;9.23;;;2.00;;
18610;SDS011;9435;52.122;5.502;2023-08-12T14:27:38;11.05;;;2.30;;
18610;SDS011;9435;52.122;5.502;2023-08-12T14:30:06;9.30;;;1.90;;
18610;SDS011;9435;52.122;5.502;2023-08-12T14:32:34;8.75;;;2.10;;
18610;SDS011;9435;52.122;5.502;2023-08-12T14:35:01;6.75;;;2.10;;
18610;SDS011;9435;52.122;5.502;2023-08-12T14:37:28;8.82;;;2.47;;
18610;SDS011;9435;52.122;5.502;2023-08-12T14:39:55;8.48;;;1.98;;
18610;SDS011;9435;52.122;5.502;2023-08-12T14:42:23;7.20;;;2.08;;
18610;SDS011;9435;52.122;5.502;2023-08-12T14:44:50;11.35;;;2.30;;
18610;SDS011;9435;52.122;5.502;2023-08-12T14:47:17;8.43;;;2.00;;
18610;SDS011;9435;52.122;5.502;2023-08-12T14:49:45;7.78;;;1.85;;
18610;SDS011;9435;52.122;5.502;2023-08-12T14:52:15;10.07;;;2.22;;
18610;SDS011;9435;52.122;5.502;2023-08-12T14:54:43;7.40;;;2.03;;